createdAt,value
2018-06-03T00:14:11.024Z,3.8
2018-06-03T00:30:55.957Z,3.8
2018-06-03T00:47:40.960Z,3.8
2018-06-03T01:04:26.082Z,3.8
2018-06-03T01:21:11.263Z,3.8
2018-06-03T01:37:56.411Z,3.8
2018-06-03T01:54:41.548Z,3.8
2018-06-03T02:11:26.698Z,3.8
2018-06-03T02:28:11.834Z,3.7
2018-06-03T02:44:56.874Z,3.7
2018-06-03T03:01:41.871Z,3.7
2018-06-03T03:18:29.588Z,3.7
2018-06-03T03:35:16.140Z,3.7
2018-06-03T03:51:55.560Z,3.7
2018-06-03T04:08:40.265Z,3.7
2018-06-03T04:25:28.608Z,3.7
2018-06-03T04:42:10.684Z,3.7
2018-06-03T04:58:56.302Z,3.7
2018-06-03T05:15:41.973Z,3.8
2018-06-03T05:32:27.794Z,3.8
2018-06-03T05:49:13.880Z,3.8
2018-06-03T06:06:00.188Z,3.8
2018-06-03T06:22:46.600Z,3.9
2018-06-03T06:39:33.348Z,3.9
2018-06-03T06:49:37.764Z,4.0
2018-06-03T07:06:29.573Z,4.0
2018-06-03T07:23:13.576Z,4.0
2018-06-03T07:40:01.465Z,4.0
2018-06-03T08:13:42.230Z,4.0
2018-06-03T08:30:27.057Z,4.0
2018-06-03T08:47:15.494Z,4.0
2018-06-03T09:04:03.532Z,4.0
2018-06-03T09:10:46.878Z,4.0
2018-06-03T09:27:35.730Z,4.0
2018-06-03T09:34:19.024Z,4.0
2018-06-03T09:51:07.025Z,4.0
2018-06-03T09:57:50.473Z,4.1
2018-06-03T10:07:56.042Z,4.1
2018-06-03T10:24:45.721Z,4.1
2018-06-03T10:34:51.906Z,4.1
2018-06-03T10:51:42.344Z,4.1
2018-06-03T11:05:11.141Z,4.1
2018-06-03T11:22:02.151Z,4.1
2018-06-03T11:38:52.798Z,4.1
2018-06-03T11:55:44.328Z,4.1
2018-06-03T12:12:34.026Z,4.1
2018-06-03T12:29:25.110Z,4.1
2018-06-03T12:42:54.124Z,4.1
2018-06-03T12:53:01.123Z,4.1
2018-06-03T13:09:51.434Z,4.1
2018-06-03T13:19:58.027Z,4.1
2018-06-03T13:30:04.929Z,4.1
2018-06-03T13:46:57.153Z,4.1
2018-06-03T14:03:52.581Z,4.1
2018-06-03T14:20:41.708Z,4.2
2018-06-03T14:32:30.661Z,4.3
2018-06-03T14:49:24.331Z,4.3
2018-06-03T15:01:13.289Z,4.2
2018-06-03T15:18:05.760Z,4.2
2018-06-03T15:34:58.074Z,4.1
2018-06-03T15:51:48.967Z,4.1
2018-06-03T16:01:56.363Z,4.1
2018-06-03T16:18:47.906Z,4.1
2018-06-03T16:28:55.320Z,4.2
2018-06-03T16:32:17.948Z,4.2
2018-06-03T16:37:22.276Z,4.3
2018-06-03T16:44:07.873Z,4.4
2018-06-03T17:01:02.821Z,4.4
2018-06-03T17:09:34.801Z,4.5
2018-06-03T17:12:53.780Z,4.5
2018-06-03T17:19:41.278Z,4.6
2018-06-03T17:23:03.260Z,4.5
2018-06-03T17:26:26.311Z,4.4
2018-06-03T17:43:21.248Z,4.4
2018-06-03T17:46:44.045Z,4.3
2018-06-03T17:51:47.893Z,4.1
2018-06-03T17:58:32.700Z,4.1
2018-06-03T18:05:17.015Z,4.1
2018-06-03T18:22:07.235Z,4.0
2018-06-03T18:35:34.812Z,4.0
2018-06-03T18:52:24.842Z,4.0
2018-06-03T19:09:12.744Z,4.0
2018-06-03T19:26:01.114Z,4.0
2018-06-03T19:42:49.263Z,4.0
2018-06-03T19:59:37.119Z,4.0
2018-06-03T20:16:29.772Z,4.0
2018-06-03T20:33:14.005Z,3.9
2018-06-03T21:40:19.559Z,3.9
2018-06-03T21:57:05.941Z,3.9
2018-06-03T22:13:52.066Z,3.9
2018-06-03T22:30:38.045Z,3.9
2018-06-03T22:47:23.780Z,3.9
2018-06-03T23:04:09.476Z,3.9
2018-06-03T23:20:55.026Z,3.8
2018-06-03T23:37:40.329Z,3.8
2018-06-03T23:54:25.581Z,3.8
